createdAt,value
2019-03-20T00:00:16.398Z,77.27
2019-03-20T00:01:19.613Z,77.34
2019-03-20T00:02:23.847Z,77.19
2019-03-20T00:03:27.976Z,76.98
2019-03-20T00:04:32.207Z,76.65
2019-03-20T00:05:36.368Z,76.61
2019-03-20T00:06:40.451Z,77.68
2019-03-20T00:07:44.788Z,77.87
2019-03-20T00:08:48.869Z,77.22
2019-03-20T00:09:53.221Z,77.37
2019-03-20T00:10:57.275Z,77.69
2019-03-20T00:12:01.514Z,77.77
2019-03-20T00:13:05.666Z,77.95
2019-03-20T00:14:09.960Z,78.03
2019-03-20T00:15:14.112Z,78.00
2019-03-20T00:16:18.213Z,77.57
2019-03-20T00:17:22.441Z,77.17
2019-03-20T00:18:26.715Z,76.89
2019-03-20T00:19:30.852Z,76.93
2019-03-20T00:20:34.945Z,76.70
2019-03-20T00:21:39.253Z,76.81
2019-03-20T00:22:43.610Z,76.95
2019-03-20T00:23:47.518Z,76.94
2019-03-20T00:24:51.896Z,77.16
2019-03-20T00:25:56.096Z,77.24
2019-03-20T00:27:00.376Z,77.66
2019-03-20T00:28:04.568Z,77.44
2019-03-20T00:29:08.754Z,77.20
2019-03-20T00:30:12.980Z,77.29
2019-03-20T00:31:17.269Z,77.38
2019-03-20T00:32:21.526Z,77.52
2019-03-20T00:33:25.666Z,77.58
2019-03-20T00:34:29.838Z,77.32
2019-03-20T00:35:34.028Z,77.04
2019-03-20T00:36:38.274Z,76.80
2019-03-20T00:37:42.453Z,76.87
2019-03-20T00:38:46.605Z,77.14
2019-03-20T00:39:50.909Z,76.97
2019-03-20T00:40:54.934Z,77.10
2019-03-20T00:41:59.189Z,77.19
2019-03-20T00:43:03.373Z,76.98
2019-03-20T00:44:07.575Z,76.96
2019-03-20T00:45:11.631Z,76.67
2019-03-20T00:46:15.825Z,76.62
2019-03-20T00:47:20.084Z,76.33
2019-03-20T00:48:24.328Z,76.39
2019-03-20T00:49:28.457Z,76.63
2019-03-20T00:50:32.729Z,76.80
2019-03-20T00:51:36.878Z,76.81
2019-03-20T00:52:40.957Z,76.78
2019-03-20T00:53:45.230Z,76.91
2019-03-20T00:54:49.301Z,76.73
2019-03-20T00:55:53.514Z,76.98
2019-03-20T00:56:57.576Z,76.98
2019-03-20T00:58:01.819Z,77.19
2019-03-20T00:59:06.030Z,77.37
2019-03-20T01:00:10.219Z,77.33
2019-03-20T01:01:14.315Z,77.61
2019-03-20T01:02:18.641Z,77.59
2019-03-20T01:03:22.695Z,77.43
2019-03-20T01:04:26.817Z,77.45
2019-03-20T01:05:31.145Z,77.44
2019-03-20T01:06:35.385Z,77.48
2019-03-20T01:07:39.543Z,77.61
2019-03-20T01:08:43.736Z,77.74
2019-03-20T01:09:47.946Z,77.68
2019-03-20T01:10:52.112Z,77.56
2019-03-20T01:11:56.314Z,77.77
2019-03-20T01:13:00.597Z,77.77
2019-03-20T01:14:04.705Z,77.66
2019-03-20T01:15:08.884Z,77.72
2019-03-20T01:16:12.996Z,77.66
2019-03-20T01:17:17.318Z,77.58
2019-03-20T01:18:22.577Z,77.56
2019-03-20T01:19:25.684Z,77.54
2019-03-20T01:20:29.840Z,77.47
2019-03-20T01:21:33.956Z,77.51
2019-03-20T01:22:37.981Z,77.48
2019-03-20T01:23:42.248Z,77.56
2019-03-20T01:24:46.392Z,77.54
2019-03-20T01:25:50.485Z,77.56
2019-03-20T01:26:54.718Z,77.59
2019-03-20T01:27:58.913Z,77.60
2019-03-20T01:29:02.982Z,77.55
2019-03-20T01:30:07.298Z,77.48
2019-03-20T01:31:11.465Z,77.54
2019-03-20T01:32:15.747Z,77.67
2019-03-20T01:33:19.901Z,77.57
2019-03-20T01:34:24.087Z,77.56
2019-03-20T01:35:28.173Z,77.54
2019-03-20T01:36:32.345Z,77.61
2019-03-20T01:37:36.421Z,77.64
2019-03-20T01:38:40.663Z,77.61
2019-03-20T01:39:44.812Z,78.13
2019-03-20T01:40:48.867Z,78.09
2019-03-20T01:41:53.118Z,77.90
2019-03-20T01:42:57.375Z,77.80
2019-03-20T01:44:01.610Z,77.74
2019-03-20T01:45:05.903Z,77.80
2019-03-20T01:46:09.982Z,77.52
2019-03-20T01:47:14.107Z,77.94
2019-03-20T01:48:18.313Z,77.63
2019-03-20T01:49:22.564Z,77.50
2019-03-20T01:50:26.594Z,77.46
2019-03-20T01:51:30.911Z,77.59
2019-03-20T01:52:35.179Z,77.26
2019-03-20T01:53:39.429Z,77.02
2019-03-20T01:54:43.545Z,77.28
2019-03-20T01:55:47.750Z,77.30
2019-03-20T01:56:51.982Z,77.14
2019-03-20T01:57:56.266Z,77.53
2019-03-20T01:59:00.261Z,77.65
2019-03-20T02:00:04.566Z,78.13
2019-03-20T02:01:08.769Z,78.17
2019-03-20T02:02:13.041Z,78.28
2019-03-20T02:03:17.277Z,78.36
2019-03-20T02:04:21.424Z,78.28
2019-03-20T02:05:35.134Z,78.53
2019-03-20T02:06:29.805Z,78.55
2019-03-20T02:07:34.161Z,78.50
2019-03-20T02:08:38.335Z,78.31
2019-03-20T02:09:42.490Z,78.98
2019-03-20T02:10:46.660Z,78.80
2019-03-20T02:11:50.839Z,79.08
2019-03-20T02:12:54.939Z,79.07
2019-03-20T02:13:59.266Z,79.09
2019-03-20T02:15:03.385Z,78.74
2019-03-20T02:16:07.446Z,78.28
2019-03-20T02:17:11.485Z,78.06
2019-03-20T02:18:15.808Z,78.02
2019-03-20T02:19:19.990Z,77.67
2019-03-20T02:20:24.057Z,77.98
2019-03-20T02:21:28.314Z,77.83
2019-03-20T02:22:32.305Z,78.09
2019-03-20T02:23:36.584Z,78.18
2019-03-20T02:24:40.672Z,78.33
2019-03-20T02:25:44.700Z,78.79
2019-03-20T02:26:49.009Z,78.26
2019-03-20T02:27:53.213Z,78.29
2019-03-20T02:28:57.447Z,78.71
2019-03-20T02:30:01.503Z,78.35
2019-03-20T02:31:05.649Z,78.15
2019-03-20T02:32:09.682Z,77.97
2019-03-20T02:33:13.969Z,77.75
2019-03-20T02:34:18.236Z,78.00
2019-03-20T02:35:22.414Z,78.11
2019-03-20T02:36:26.522Z,77.80
2019-03-20T02:37:30.581Z,77.86
2019-03-20T02:38:34.896Z,78.01
2019-03-20T02:39:39.103Z,77.86
2019-03-20T02:40:43.126Z,78.00
2019-03-20T02:41:47.338Z,78.06
2019-03-20T02:42:51.577Z,78.09
2019-03-20T02:43:55.657Z,78.53
2019-03-20T02:44:59.967Z,78.24
2019-03-20T02:46:04.126Z,78.68
2019-03-20T02:47:08.154Z,78.22
2019-03-20T02:48:12.358Z,77.81
2019-03-20T02:49:16.620Z,78.10
2019-03-20T02:50:20.893Z,78.14
2019-03-20T02:51:25.019Z,77.86
2019-03-20T02:52:29.291Z,77.81
2019-03-20T02:53:33.348Z,77.75
2019-03-20T02:54:37.605Z,77.61
2019-03-20T02:55:41.675Z,77.68
2019-03-20T02:56:45.801Z,77.85
2019-03-20T02:57:50.113Z,78.06
2019-03-20T02:58:54.303Z,77.84
2019-03-20T02:59:58.477Z,77.64
2019-03-20T03:01:02.749Z,77.66
2019-03-20T03:02:06.959Z,77.78
2019-03-20T03:03:11.018Z,77.99
2019-03-20T03:04:15.081Z,77.79
2019-03-20T03:05:19.432Z,77.78
2019-03-20T03:06:23.552Z,77.58
2019-03-20T03:07:27.754Z,77.55
2019-03-20T03:08:31.961Z,77.55
2019-03-20T03:09:36.222Z,78.14
2019-03-20T03:10:40.244Z,77.78
2019-03-20T03:11:44.403Z,77.69
2019-03-20T03:12:48.664Z,77.78
2019-03-20T03:13:52.755Z,77.72
2019-03-20T03:14:57.089Z,77.75
2019-03-20T03:16:01.117Z,78.10
2019-03-20T03:17:05.380Z,78.22
2019-03-20T03:18:09.447Z,77.81
2019-03-20T03:19:13.612Z,77.75
2019-03-20T03:20:18.032Z,77.78
2019-03-20T03:21:22.122Z,77.57
2019-03-20T03:22:26.278Z,77.56
2019-03-20T03:23:30.528Z,77.44
2019-03-20T03:24:34.718Z,77.52
2019-03-20T03:25:38.859Z,77.70
2019-03-20T03:26:43.071Z,77.50
2019-03-20T03:27:47.159Z,77.53
2019-03-20T03:28:51.370Z,77.78
2019-03-20T03:29:55.454Z,77.56
2019-03-20T03:30:59.806Z,77.59
2019-03-20T03:32:04.043Z,77.52
2019-03-20T03:33:08.164Z,77.91
2019-03-20T03:34:12.333Z,77.68
2019-03-20T03:35:19.053Z,77.51
2019-03-20T03:36:21.794Z,77.46
2019-03-20T03:37:24.875Z,77.48
2019-03-20T03:38:29.001Z,77.33
2019-03-20T03:39:33.222Z,77.36
2019-03-20T03:40:37.453Z,77.39
2019-03-20T03:41:41.631Z,77.65
2019-03-20T03:42:45.827Z,77.64
2019-03-20T03:43:49.996Z,77.79
2019-03-20T03:44:54.017Z,78.21
2019-03-20T03:45:58.225Z,78.13
2019-03-20T03:47:02.329Z,78.74
2019-03-20T03:48:06.477Z,78.48
2019-03-20T03:49:10.718Z,78.37
2019-03-20T03:50:14.744Z,78.17
2019-03-20T03:51:18.973Z,78.20
2019-03-20T03:52:23.283Z,78.44
2019-03-20T03:53:27.462Z,78.46
2019-03-20T03:54:31.440Z,78.56
2019-03-20T03:55:35.645Z,78.59
2019-03-20T03:56:39.672Z,78.72
2019-03-20T03:57:43.871Z,78.53
2019-03-20T03:58:47.926Z,78.80
2019-03-20T03:59:52.146Z,78.53
2019-03-20T04:00:56.240Z,78.78
2019-03-20T04:02:00.332Z,78.66
2019-03-20T04:03:04.483Z,78.59
2019-03-20T04:04:08.731Z,78.57
2019-03-20T04:05:12.675Z,78.74
2019-03-20T04:06:16.870Z,78.70
2019-03-20T04:07:23.538Z,78.58
2019-03-20T04:08:25.222Z,78.50
2019-03-20T04:09:29.534Z,78.65
2019-03-20T04:10:33.642Z,78.39
2019-03-20T04:11:37.845Z,78.64
2019-03-20T04:12:41.947Z,78.48
2019-03-20T04:13:46.021Z,78.43
2019-03-20T04:14:50.249Z,78.50
2019-03-20T04:15:54.454Z,78.50
2019-03-20T04:16:58.592Z,78.56
2019-03-20T04:18:02.809Z,78.57
2019-03-20T04:19:06.942Z,78.52
2019-03-20T04:20:11.154Z,78.44
2019-03-20T04:21:15.445Z,78.65
2019-03-20T04:22:19.463Z,78.61
2019-03-20T04:23:23.701Z,78.92
2019-03-20T04:24:27.895Z,78.58
2019-03-20T04:25:32.086Z,78.85
2019-03-20T04:26:36.196Z,78.61
2019-03-20T04:27:40.510Z,78.77
2019-03-20T04:28:44.447Z,78.76
2019-03-20T04:29:48.621Z,78.76
2019-03-20T04:30:52.871Z,78.75
2019-03-20T04:31:57.187Z,78.93
2019-03-20T04:33:01.140Z,78.92
2019-03-20T04:34:05.457Z,78.85
2019-03-20T04:35:09.628Z,78.96
2019-03-20T04:36:13.708Z,78.99
2019-03-20T04:37:18.013Z,79.05
2019-03-20T04:38:22.176Z,79.02
2019-03-20T04:39:26.452Z,78.79
2019-03-20T04:40:30.533Z,79.02
2019-03-20T04:41:34.661Z,78.86
2019-03-20T04:42:38.822Z,78.94
2019-03-20T04:43:43.053Z,78.82
2019-03-20T04:44:47.171Z,78.75
2019-03-20T04:45:51.379Z,79.17
2019-03-20T04:46:55.606Z,79.01
2019-03-20T04:47:59.805Z,79.13
2019-03-20T04:49:03.931Z,79.08
2019-03-20T04:50:08.135Z,79.11
2019-03-20T04:51:12.351Z,78.96
2019-03-20T04:52:16.788Z,78.97
2019-03-20T04:53:20.681Z,79.01
2019-03-20T04:54:24.811Z,78.97
2019-03-20T04:55:29.082Z,78.76
2019-03-20T04:56:33.203Z,78.80
2019-03-20T04:57:37.354Z,78.95
2019-03-20T04:58:41.497Z,78.75
2019-03-20T04:59:45.523Z,78.88
2019-03-20T05:00:49.703Z,79.06
2019-03-20T05:01:54.053Z,78.92
2019-03-20T05:02:58.123Z,78.96
2019-03-20T05:04:02.385Z,78.88
2019-03-20T05:05:06.568Z,78.88
2019-03-20T05:06:10.655Z,79.28
2019-03-20T05:07:14.945Z,79.14
2019-03-20T05:08:19.060Z,79.02
2019-03-20T05:09:23.298Z,78.96
2019-03-20T05:10:27.432Z,79.14
2019-03-20T05:11:31.646Z,78.89
2019-03-20T05:12:35.795Z,79.10
2019-03-20T05:13:39.917Z,79.39
2019-03-20T05:14:44.026Z,79.44
2019-03-20T05:15:48.187Z,79.47
2019-03-20T05:16:52.316Z,79.42
2019-03-20T05:17:56.463Z,79.43
2019-03-20T05:19:00.679Z,79.23
2019-03-20T05:20:04.676Z,79.34
2019-03-20T05:21:08.770Z,79.02
2019-03-20T05:22:13.008Z,78.87
2019-03-20T05:23:17.374Z,78.88
2019-03-20T05:24:22.282Z,79.02
2019-03-20T05:25:26.175Z,79.17
2019-03-20T05:26:30.224Z,79.23
2019-03-20T05:27:34.297Z,79.34
2019-03-20T05:28:38.675Z,79.38
2019-03-20T05:29:42.843Z,79.36
2019-03-20T05:30:47.045Z,79.16
2019-03-20T05:31:51.241Z,79.20
2019-03-20T05:32:55.521Z,79.32
2019-03-20T05:33:59.797Z,79.00
2019-03-20T05:35:04.014Z,78.99
2019-03-20T05:36:08.177Z,79.16
2019-03-20T05:37:12.240Z,79.36
2019-03-20T05:38:16.443Z,79.02
2019-03-20T05:39:20.807Z,78.97
2019-03-20T05:40:24.840Z,78.98
2019-03-20T05:41:28.988Z,78.93
2019-03-20T05:42:33.229Z,78.84
2019-03-20T05:43:37.311Z,78.99
2019-03-20T05:44:41.371Z,79.13
2019-03-20T05:45:45.701Z,78.97
2019-03-20T05:46:49.878Z,78.80
2019-03-20T05:47:54.075Z,78.93
2019-03-20T05:48:58.309Z,79.01
2019-03-20T05:50:02.330Z,78.89
2019-03-20T05:51:09.574Z,78.84
2019-03-20T05:52:12.865Z,78.84
2019-03-20T05:53:17.018Z,78.81
2019-03-20T05:54:21.214Z,78.74
2019-03-20T05:55:25.423Z,78.93
2019-03-20T05:56:29.599Z,79.01
2019-03-20T05:57:33.703Z,78.80
2019-03-20T05:58:38.112Z,78.66
2019-03-20T05:59:42.113Z,78.51
2019-03-20T06:00:46.325Z,78.91
2019-03-20T06:01:50.399Z,78.95
2019-03-20T06:02:54.663Z,78.87
2019-03-20T06:03:58.724Z,78.84
2019-03-20T06:05:02.864Z,78.74
2019-03-20T06:06:07.073Z,78.94
2019-03-20T06:07:21.085Z,79.12
2019-03-20T06:08:15.367Z,78.96
2019-03-20T06:09:19.634Z,78.92
2019-03-20T06:10:23.781Z,78.94
2019-03-20T06:11:27.982Z,78.92
2019-03-20T06:12:32.223Z,79.25
2019-03-20T06:13:36.384Z,78.88
2019-03-20T06:14:40.507Z,78.82
2019-03-20T06:15:44.751Z,78.81
2019-03-20T06:16:48.904Z,78.80
2019-03-20T06:17:53.146Z,78.97
2019-03-20T06:18:57.330Z,79.01
2019-03-20T06:20:01.614Z,79.13
2019-03-20T06:21:05.595Z,79.14
2019-03-20T06:22:09.920Z,79.08
2019-03-20T06:23:13.949Z,78.98
2019-03-20T06:24:18.141Z,79.13
2019-03-20T06:25:22.309Z,79.17
2019-03-20T06:26:26.610Z,79.30
2019-03-20T06:27:30.697Z,79.30
2019-03-20T06:28:34.983Z,79.34
2019-03-20T06:29:39.158Z,79.30
2019-03-20T06:30:43.340Z,79.20
2019-03-20T06:31:47.609Z,79.33
2019-03-20T06:32:51.767Z,79.39
2019-03-20T06:33:55.981Z,79.40
2019-03-20T06:35:00.422Z,79.53
2019-03-20T06:36:04.365Z,79.56
2019-03-20T06:37:08.590Z,79.53
2019-03-20T06:38:12.766Z,79.57
2019-03-20T06:39:16.970Z,79.68
2019-03-20T06:40:21.122Z,79.50
2019-03-20T06:41:25.265Z,79.56
2019-03-20T06:42:29.523Z,79.56
2019-03-20T06:43:33.730Z,79.40
2019-03-20T06:44:37.840Z,79.57
2019-03-20T06:45:42.105Z,79.55
2019-03-20T06:46:46.413Z,79.51
2019-03-20T06:47:50.606Z,79.35
2019-03-20T06:48:54.772Z,79.39
2019-03-20T06:49:58.977Z,79.38
2019-03-20T06:51:03.105Z,79.50
2019-03-20T06:52:07.176Z,79.47
2019-03-20T06:53:11.460Z,79.31
2019-03-20T06:54:15.489Z,79.13
2019-03-20T06:55:19.794Z,79.11
2019-03-20T06:56:23.939Z,79.21
2019-03-20T06:57:28.220Z,79.28
2019-03-20T06:58:32.303Z,79.29
2019-03-20T06:59:36.477Z,79.21
2019-03-20T07:00:40.800Z,79.29
2019-03-20T07:01:45.101Z,79.21
2019-03-20T07:02:49.195Z,79.21
2019-03-20T07:03:53.359Z,79.20
2019-03-20T07:04:57.540Z,79.15
2019-03-20T07:06:01.818Z,79.00
2019-03-20T07:07:06.100Z,79.02
2019-03-20T07:08:10.337Z,78.98
2019-03-20T07:09:14.509Z,78.87
2019-03-20T07:10:18.600Z,78.73
2019-03-20T07:11:22.735Z,78.72
2019-03-20T07:12:27.070Z,78.61
2019-03-20T07:13:31.404Z,78.49
2019-03-20T07:14:35.469Z,78.46
2019-03-20T07:15:39.799Z,78.47
2019-03-20T07:16:44.182Z,78.41
2019-03-20T07:17:48.213Z,78.34
2019-03-20T07:18:52.387Z,78.25
2019-03-20T07:19:56.543Z,78.33
2019-03-20T07:21:00.820Z,78.31
2019-03-20T07:22:05.023Z,78.26
2019-03-20T07:23:09.181Z,78.29
2019-03-20T07:24:13.451Z,78.24
2019-03-20T07:25:17.594Z,78.23
2019-03-20T07:26:21.690Z,78.05
2019-03-20T07:27:25.986Z,78.16
2019-03-20T07:28:30.090Z,78.04
2019-03-20T07:29:34.170Z,77.93
2019-03-20T07:30:38.471Z,77.99
2019-03-20T07:31:42.671Z,77.98
2019-03-20T07:32:46.885Z,77.96
2019-03-20T07:33:50.928Z,77.94
2019-03-20T07:34:55.254Z,77.96
2019-03-20T07:35:59.553Z,77.89
2019-03-20T07:37:03.766Z,77.85
2019-03-20T07:38:07.968Z,77.89
2019-03-20T07:39:12.202Z,77.81
2019-03-20T07:40:16.471Z,77.73
2019-03-20T07:41:20.729Z,77.53
2019-03-20T07:42:24.902Z,77.51
2019-03-20T07:43:29.152Z,77.33
2019-03-20T07:44:33.265Z,77.22
2019-03-20T07:45:37.519Z,77.18
2019-03-20T07:46:41.852Z,77.18
2019-03-20T07:47:46.030Z,77.25
2019-03-20T07:48:50.254Z,77.36
2019-03-20T07:49:54.418Z,77.47
2019-03-20T07:50:58.528Z,77.60
2019-03-20T07:52:02.828Z,77.64
2019-03-20T07:53:07.086Z,77.62
2019-03-20T07:54:11.141Z,77.66
2019-03-20T07:55:15.429Z,77.70
2019-03-20T07:56:19.607Z,77.76
2019-03-20T07:57:23.898Z,77.64
2019-03-20T07:58:28.210Z,77.49
2019-03-20T07:59:32.489Z,77.25
2019-03-20T08:00:36.753Z,77.11
2019-03-20T08:01:40.932Z,77.05
2019-03-20T08:02:45.228Z,76.99
2019-03-20T08:03:49.548Z,77.01
2019-03-20T08:04:53.826Z,77.05
2019-03-20T08:05:58.058Z,76.98
2019-03-20T08:07:02.230Z,76.91
2019-03-20T08:08:07.798Z,76.94
2019-03-20T08:09:10.651Z,77.01
2019-03-20T08:10:14.900Z,77.13
2019-03-20T08:11:26.191Z,77.22
2019-03-20T08:12:28.826Z,77.36
2019-03-20T08:13:33.125Z,77.32
2019-03-20T08:14:37.399Z,77.34
2019-03-20T08:15:41.667Z,77.33
2019-03-20T08:16:46.000Z,77.27
2019-03-20T08:17:50.179Z,77.32
2019-03-20T08:18:54.375Z,77.20
2019-03-20T08:19:58.597Z,77.15
2019-03-20T08:21:02.832Z,77.16
2019-03-20T08:22:07.099Z,77.16
2019-03-20T08:23:11.233Z,77.17
2019-03-20T08:24:15.519Z,77.14
2019-03-20T08:25:19.726Z,76.77
2019-03-20T08:26:23.971Z,76.81
2019-03-20T08:27:28.216Z,76.66
2019-03-20T08:28:32.483Z,76.55
2019-03-20T08:29:36.643Z,76.45
2019-03-20T08:30:40.975Z,75.91
2019-03-20T08:31:45.212Z,75.86
2019-03-20T08:32:49.359Z,75.87
2019-03-20T08:33:53.762Z,75.36
2019-03-20T08:34:57.950Z,75.36
2019-03-20T08:36:02.192Z,75.63
2019-03-20T08:37:06.416Z,75.57
2019-03-20T08:38:18.268Z,75.72
2019-03-20T08:39:14.957Z,75.70
2019-03-20T08:40:19.281Z,75.67
2019-03-20T08:41:23.551Z,74.84
2019-03-20T08:42:27.758Z,75.16
2019-03-20T08:43:32.031Z,75.36
2019-03-20T08:44:36.308Z,75.17
2019-03-20T08:45:40.535Z,75.30
2019-03-20T08:46:44.883Z,75.48
2019-03-20T08:47:49.076Z,75.64
2019-03-20T08:48:53.341Z,75.49
2019-03-20T08:49:57.569Z,75.38
2019-03-20T08:51:01.861Z,75.00
2019-03-20T08:52:06.002Z,75.23
2019-03-20T08:53:10.214Z,75.18
2019-03-20T08:54:14.403Z,75.34
2019-03-20T08:55:18.702Z,75.09
2019-03-20T08:56:22.978Z,75.33
2019-03-20T08:57:27.119Z,75.13
2019-03-20T08:58:31.339Z,75.09
2019-03-20T08:59:35.715Z,75.41
2019-03-20T09:00:39.990Z,75.46
2019-03-20T09:01:44.122Z,75.42
2019-03-20T09:02:48.356Z,75.27
2019-03-20T09:03:52.712Z,75.83
2019-03-20T09:04:56.958Z,75.54
2019-03-20T09:06:01.343Z,75.33
2019-03-20T09:07:05.469Z,75.12
2019-03-20T09:08:09.682Z,75.04
2019-03-20T09:09:14.042Z,74.84
2019-03-20T09:10:18.284Z,74.25
2019-03-20T09:11:22.537Z,74.15
2019-03-20T09:12:26.740Z,74.12
2019-03-20T09:13:31.140Z,74.18
2019-03-20T09:14:35.342Z,74.28
2019-03-20T09:15:39.494Z,74.50
2019-03-20T09:16:43.903Z,74.52
2019-03-20T09:17:48.122Z,74.48
2019-03-20T09:18:52.237Z,74.28
2019-03-20T09:19:56.591Z,74.34
2019-03-20T09:21:00.958Z,74.55
2019-03-20T09:22:05.030Z,74.29
2019-03-20T09:23:09.417Z,74.20
2019-03-20T09:24:13.709Z,74.13
2019-03-20T09:25:17.941Z,74.02
2019-03-20T09:26:22.163Z,73.97
2019-03-20T09:27:26.448Z,74.21
2019-03-20T09:28:30.714Z,74.07
2019-03-20T09:29:36.290Z,73.89
2019-03-20T09:30:39.169Z,73.65
2019-03-20T09:31:43.449Z,74.02
2019-03-20T09:32:47.804Z,73.97
2019-03-20T09:33:52.138Z,73.94
2019-03-20T09:34:56.386Z,73.92
2019-03-20T09:36:00.639Z,73.91
2019-03-20T09:37:04.999Z,73.59
2019-03-20T09:38:09.114Z,73.33
2019-03-20T09:39:13.460Z,73.67
2019-03-20T09:40:17.629Z,73.06
2019-03-20T09:41:21.968Z,73.59
2019-03-20T09:42:26.244Z,73.52
2019-03-20T09:43:30.446Z,73.60
2019-03-20T09:44:34.877Z,73.79
2019-03-20T09:45:39.045Z,73.42
2019-03-20T09:46:43.315Z,73.49
2019-03-20T09:47:47.611Z,73.52
2019-03-20T09:48:51.865Z,73.60
2019-03-20T09:49:56.122Z,73.57
2019-03-20T09:51:00.383Z,73.52
2019-03-20T09:52:04.652Z,73.24
2019-03-20T09:53:08.940Z,73.44
2019-03-20T09:54:13.268Z,73.38
2019-03-20T09:55:17.509Z,73.56
2019-03-20T09:56:21.826Z,73.76
2019-03-20T09:57:26.096Z,73.64
2019-03-20T09:58:30.309Z,73.68
2019-03-20T09:59:34.652Z,73.19
2019-03-20T10:00:38.840Z,73.50
2019-03-20T10:01:43.147Z,73.53
2019-03-20T10:02:47.437Z,73.56
2019-03-20T10:03:51.743Z,73.65
2019-03-20T10:04:56.019Z,73.75
2019-03-20T10:06:00.277Z,73.70
2019-03-20T10:07:04.573Z,73.62
2019-03-20T10:08:08.859Z,73.75
2019-03-20T10:09:13.149Z,73.64
2019-03-20T10:10:17.442Z,73.75
2019-03-20T10:11:21.727Z,73.49
2019-03-20T10:12:26.020Z,73.31
2019-03-20T10:13:30.278Z,73.25
2019-03-20T10:14:34.573Z,73.23
2019-03-20T10:15:38.859Z,73.35
2019-03-20T10:16:43.115Z,73.31
2019-03-20T10:17:47.381Z,73.06
2019-03-20T10:18:51.691Z,72.80
2019-03-20T10:19:55.972Z,73.10
2019-03-20T10:21:00.189Z,73.11
2019-03-20T10:22:04.504Z,73.29
2019-03-20T10:23:08.786Z,73.26
2019-03-20T10:24:13.042Z,73.05
2019-03-20T10:25:17.355Z,73.19
2019-03-20T10:26:21.645Z,73.15
2019-03-20T10:27:25.768Z,73.08
2019-03-20T10:28:30.123Z,73.13
2019-03-20T10:29:34.434Z,72.67
2019-03-20T10:30:38.731Z,73.04
2019-03-20T10:31:43.128Z,72.79
2019-03-20T10:32:47.388Z,72.92
2019-03-20T10:33:51.783Z,72.77
2019-03-20T10:34:56.030Z,72.80
2019-03-20T10:36:00.450Z,72.85
2019-03-20T10:37:04.638Z,72.81
2019-03-20T10:38:08.906Z,72.97
2019-03-20T10:39:13.462Z,72.85
2019-03-20T10:40:17.659Z,72.98
2019-03-20T10:41:21.863Z,72.82
2019-03-20T10:42:26.112Z,72.59
2019-03-20T10:43:30.336Z,72.65
2019-03-20T10:44:34.627Z,72.42
2019-03-20T10:45:38.898Z,72.60
2019-03-20T10:46:43.224Z,72.83
2019-03-20T10:47:47.292Z,72.76
2019-03-20T10:48:51.759Z,72.69
2019-03-20T10:49:55.999Z,72.73
2019-03-20T10:51:00.294Z,72.72
2019-03-20T10:52:04.591Z,72.91
2019-03-20T10:53:08.979Z,73.00
2019-03-20T10:54:13.185Z,72.65
2019-03-20T10:55:17.454Z,72.42
2019-03-20T10:56:21.744Z,72.72
2019-03-20T10:57:25.997Z,72.50
2019-03-20T10:58:30.245Z,72.80
2019-03-20T10:59:34.610Z,72.95
2019-03-20T11:00:40.788Z,72.91
2019-03-20T11:01:43.143Z,72.77
2019-03-20T11:02:47.490Z,72.79
2019-03-20T11:03:51.611Z,72.94
2019-03-20T11:04:55.916Z,72.92
2019-03-20T11:06:00.224Z,72.76
2019-03-20T11:07:04.512Z,72.92
2019-03-20T11:08:08.924Z,72.70
2019-03-20T11:09:18.287Z,72.76
2019-03-20T11:10:17.355Z,72.99
2019-03-20T11:11:27.063Z,73.08
2019-03-20T11:12:25.944Z,73.19
2019-03-20T11:13:30.380Z,73.09
2019-03-20T11:14:34.601Z,73.21
2019-03-20T11:15:39.010Z,73.20
2019-03-20T11:16:43.278Z,73.19
2019-03-20T11:17:47.593Z,73.20
2019-03-20T11:18:51.843Z,72.77
2019-03-20T11:19:56.424Z,72.92
2019-03-20T11:21:00.420Z,72.89
2019-03-20T11:22:04.704Z,72.93
2019-03-20T11:23:09.086Z,72.80
2019-03-20T11:24:15.318Z,72.56
2019-03-20T11:25:17.671Z,72.78
2019-03-20T11:26:21.912Z,72.92
2019-03-20T11:27:27.477Z,72.96
2019-03-20T11:28:30.304Z,72.95
2019-03-20T11:29:34.757Z,73.11
2019-03-20T11:30:39.107Z,73.11
2019-03-20T11:31:43.337Z,73.24
2019-03-20T11:32:47.588Z,73.01
2019-03-20T11:33:51.958Z,73.07
2019-03-20T11:34:56.192Z,72.95
2019-03-20T11:36:00.476Z,72.84
2019-03-20T11:37:04.754Z,72.76
2019-03-20T11:38:09.140Z,72.83
2019-03-20T11:39:13.484Z,72.83
2019-03-20T11:40:17.713Z,72.72
2019-03-20T11:41:22.010Z,72.84
2019-03-20T11:42:26.415Z,72.92
2019-03-20T11:43:30.634Z,72.91
2019-03-20T11:44:34.963Z,73.01
2019-03-20T11:45:39.196Z,72.92
2019-03-20T11:46:43.589Z,72.84
2019-03-20T11:47:47.836Z,73.04
2019-03-20T11:48:52.196Z,73.11
2019-03-20T11:49:56.437Z,73.20
2019-03-20T11:51:00.734Z,73.28
2019-03-20T11:52:06.280Z,73.33
2019-03-20T11:53:09.285Z,73.35
2019-03-20T11:54:13.670Z,73.41
2019-03-20T11:55:17.907Z,73.40
2019-03-20T11:56:22.207Z,73.42
2019-03-20T11:57:26.545Z,73.44
2019-03-20T11:58:30.819Z,73.48
2019-03-20T11:59:35.194Z,73.51
2019-03-20T12:00:39.354Z,73.60
2019-03-20T12:01:43.557Z,73.62
2019-03-20T12:02:47.924Z,73.64
2019-03-20T12:03:52.214Z,73.65
2019-03-20T12:04:56.510Z,73.78
2019-03-20T12:06:00.822Z,73.70
2019-03-20T12:07:05.112Z,73.77
2019-03-20T12:08:09.411Z,73.89
2019-03-20T12:09:13.728Z,73.84
2019-03-20T12:10:17.986Z,73.94
2019-03-20T12:11:22.279Z,73.84
2019-03-20T12:12:26.536Z,73.89
2019-03-20T12:13:30.876Z,74.00
2019-03-20T12:14:35.177Z,74.08
2019-03-20T12:15:39.486Z,74.09
2019-03-20T12:16:43.850Z,74.09
2019-03-20T12:17:48.082Z,73.98
2019-03-20T12:18:52.385Z,74.13
2019-03-20T12:19:56.678Z,74.16
2019-03-20T12:21:00.992Z,74.15
2019-03-20T12:22:05.238Z,74.18
2019-03-20T12:23:09.527Z,74.24
2019-03-20T12:24:13.779Z,74.22
2019-03-20T12:25:18.155Z,74.10
2019-03-20T12:26:22.333Z,74.30
2019-03-20T12:27:26.578Z,74.33
2019-03-20T12:28:30.958Z,74.39
2019-03-20T12:29:35.227Z,74.31
2019-03-20T12:30:39.608Z,74.37
2019-03-20T12:31:43.862Z,74.33
2019-03-20T12:32:48.268Z,74.34
2019-03-20T12:33:52.529Z,74.33
2019-03-20T12:34:56.938Z,74.27
2019-03-20T12:36:01.199Z,74.25
2019-03-20T12:37:05.466Z,74.28
2019-03-20T12:38:14.797Z,74.29
2019-03-20T12:39:14.051Z,74.30
2019-03-20T12:40:18.335Z,74.50
2019-03-20T12:41:22.606Z,74.42
2019-03-20T12:42:26.890Z,74.38
2019-03-20T12:43:31.221Z,74.40
2019-03-20T12:44:35.491Z,74.48
2019-03-20T12:45:39.803Z,74.54
2019-03-20T12:46:44.097Z,74.56
2019-03-20T12:47:48.397Z,74.61
2019-03-20T12:48:52.705Z,74.82
2019-03-20T12:49:56.999Z,74.75
2019-03-20T12:51:01.282Z,74.82
2019-03-20T12:52:05.560Z,74.74
2019-03-20T12:53:09.859Z,74.89
2019-03-20T12:54:14.239Z,74.80
2019-03-20T12:55:18.560Z,74.80
2019-03-20T12:56:22.875Z,74.89
2019-03-20T12:57:27.179Z,74.97
2019-03-20T12:58:31.416Z,75.81
2019-03-20T12:59:35.736Z,75.44
2019-03-20T13:00:40.140Z,75.96
2019-03-20T13:01:44.388Z,75.68
2019-03-20T13:02:48.622Z,76.00
2019-03-20T13:03:52.953Z,76.45
2019-03-20T13:04:57.255Z,76.29
2019-03-20T13:06:01.572Z,76.60
2019-03-20T13:07:05.827Z,76.74
2019-03-20T13:08:10.148Z,76.89
2019-03-20T13:09:14.454Z,76.99
2019-03-20T13:10:18.695Z,76.83
2019-03-20T13:11:23.094Z,76.73
2019-03-20T13:12:27.364Z,76.47
2019-03-20T13:13:31.643Z,76.44
2019-03-20T13:14:35.939Z,76.70
2019-03-20T13:15:40.137Z,76.52
2019-03-20T13:16:44.294Z,76.88
2019-03-20T13:17:48.566Z,77.08
2019-03-20T13:18:52.856Z,76.58
2019-03-20T13:19:57.178Z,76.82
2019-03-20T13:21:01.484Z,76.68
2019-03-20T13:22:05.864Z,76.41
2019-03-20T13:23:10.167Z,76.67
2019-03-20T13:24:14.434Z,76.53
2019-03-20T13:25:18.813Z,76.64
2019-03-20T13:26:23.064Z,76.57
2019-03-20T13:27:27.397Z,77.18
2019-03-20T13:28:31.655Z,76.95
2019-03-20T13:29:35.756Z,77.16
2019-03-20T13:30:40.263Z,76.64
2019-03-20T13:31:44.565Z,76.70
2019-03-20T13:32:48.848Z,76.83
2019-03-20T13:33:53.147Z,76.84
2019-03-20T13:34:57.402Z,76.87
2019-03-20T13:36:01.823Z,76.62
2019-03-20T13:37:06.169Z,76.75
2019-03-20T13:38:10.424Z,76.67
2019-03-20T13:39:14.738Z,76.62
2019-03-20T13:40:22.038Z,76.81
2019-03-20T13:41:25.435Z,76.72
2019-03-20T13:42:29.642Z,76.84
2019-03-20T13:43:34.068Z,76.88
2019-03-20T13:44:38.284Z,76.95
2019-03-20T13:45:42.551Z,76.72
2019-03-20T13:46:46.785Z,76.95